createdAt,value
2022-11-20T00:02:30.678Z,974.22
2022-11-20T00:08:02.645Z,974.54
2022-11-20T00:13:34.844Z,973.76
2022-11-20T00:19:06.023Z,974.54
2022-11-20T00:24:43.991Z,974.85
2022-11-20T00:30:15.584Z,975.07
2022-11-20T00:35:40.739Z,975.0
2022-11-20T00:41:18.838Z,974.98
2022-11-20T00:46:50.570Z,974.97
2022-11-20T00:52:22.600Z,975.09
2022-11-20T00:57:54.040Z,974.93
2022-11-20T01:03:28.055Z,975.17
2022-11-20T01:08:57.926Z,975.1
2022-11-20T01:14:29.228Z,975.12
2022-11-20T01:20:01.053Z,975.05
2022-11-20T01:25:32.681Z,974.98
2022-11-20T01:31:04.387Z,975.1
2022-11-20T01:36:36.317Z,975.07
2022-11-20T01:42:12.561Z,975.21
2022-11-20T01:47:44.045Z,975.07
2022-11-20T01:53:15.753Z,974.56
2022-11-20T01:58:47.441Z,975.26
2022-11-20T02:04:28.015Z,975.44
2022-11-20T02:09:57.470Z,975.43
2022-11-20T02:15:30.767Z,975.56
2022-11-20T02:20:54.390Z,975.31
2022-11-20T02:26:25.978Z,975.31
2022-11-20T02:31:58.019Z,975.31
2022-11-20T02:37:29.654Z,975.06
2022-11-20T02:43:07.522Z,974.68
2022-11-20T02:48:39.511Z,974.62
2022-11-20T02:54:10.870Z,974.62
2022-11-20T02:59:42.585Z,974.55
2022-11-20T03:05:14.254Z,974.37
2022-11-20T03:10:46.021Z,974.07
2022-11-20T03:16:17.770Z,974.06
2022-11-20T03:21:49.610Z,974.06
2022-11-20T03:27:21.489Z,974.49
2022-11-20T03:32:52.938Z,974.44
2022-11-20T03:38:24.870Z,974.19
2022-11-20T03:44:00.830Z,974.08
2022-11-20T03:49:32.611Z,974.02
2022-11-20T03:55:04.173Z,973.78
2022-11-20T04:00:36.351Z,974.27
2022-11-20T04:06:08.353Z,974.15
2022-11-20T04:11:40.218Z,973.88
2022-11-20T04:17:11.266Z,974.14
2022-11-20T04:22:42.945Z,973.95
2022-11-20T04:28:14.844Z,973.89
2022-11-20T04:33:46.630Z,974.15
2022-11-20T04:39:18.139Z,973.91
2022-11-20T04:44:54.331Z,974.38
2022-11-20T04:50:26.216Z,974.64
2022-11-20T04:55:57.714Z,974.42
2022-11-20T05:01:29.648Z,974.18
2022-11-20T05:07:01.384Z,974.48
2022-11-20T05:12:33.013Z,974.24
2022-11-20T05:18:04.562Z,974.05
2022-11-20T05:23:36.439Z,974.09
2022-11-20T05:29:08.149Z,974.2
2022-11-20T05:34:39.722Z,974.38
2022-11-20T05:40:11.418Z,974.25
2022-11-20T05:45:47.686Z,974.37
2022-11-20T05:51:19.454Z,974.23
2022-11-20T05:56:50.899Z,974.01
2022-11-20T06:02:22.882Z,974.14
2022-11-20T06:07:54.515Z,974.22
2022-11-20T06:13:26.886Z,974.11
2022-11-20T06:18:58.126Z,974.29
2022-11-20T06:24:29.703Z,974.42
2022-11-20T06:30:01.800Z,974.22
2022-11-20T06:35:33.358Z,974.24
2022-11-20T06:41:05.020Z,974.61
2022-11-20T06:46:43.590Z,974.69
2022-11-20T06:52:14.742Z,974.4
2022-11-20T06:57:46.943Z,974.55
2022-11-20T07:03:19.589Z,974.47
2022-11-20T07:08:49.890Z,974.32
2022-11-20T07:14:21.638Z,974.58
2022-11-20T07:19:53.398Z,974.36
2022-11-20T07:25:25.326Z,974.56
2022-11-20T07:30:56.727Z,974.9
2022-11-20T07:36:29.383Z,975.07
2022-11-20T07:42:00.132Z,975.17
2022-11-20T07:47:36.165Z,975.47
2022-11-20T07:53:08.156Z,975.24
2022-11-20T07:58:39.683Z,975.24
2022-11-20T08:04:11.510Z,975.43
2022-11-20T08:09:43.110Z,975.7
2022-11-20T08:15:14.891Z,975.6
2022-11-20T08:20:46.749Z,975.65
2022-11-20T08:26:18.234Z,975.81
2022-11-20T08:31:49.984Z,975.93
2022-11-20T08:37:21.706Z,976.03
2022-11-20T08:42:53.495Z,976.15
2022-11-20T08:48:31.853Z,976.36
2022-11-20T08:54:03.570Z,976.11
2022-11-20T09:00:06.892Z,976.19
2022-11-20T09:05:06.984Z,976.14
2022-11-20T09:10:38.787Z,976.32
2022-11-20T09:16:10.561Z,976.43
2022-11-20T09:21:42.049Z,976.2
2022-11-20T09:27:13.786Z,976.5
2022-11-20T09:32:45.701Z,976.34
2022-11-20T09:38:17.314Z,976.33
2022-11-20T09:43:49.062Z,976.23
2022-11-20T09:49:33.622Z,976.33
2022-11-20T09:54:57.201Z,976.58
2022-11-20T10:00:29.112Z,976.33
2022-11-20T10:06:00.502Z,976.25
2022-11-20T10:11:31.917Z,976.24
2022-11-20T10:17:03.697Z,976.21
2022-11-20T10:22:35.562Z,976.34
2022-11-20T10:28:07.105Z,975.85
2022-11-20T10:34:12.857Z,976.21
2022-11-20T10:39:10.492Z,976.3
2022-11-20T10:44:42.377Z,975.57
2022-11-20T10:50:23.525Z,975.56
2022-11-20T10:55:50.220Z,975.71
2022-11-20T11:01:22.514Z,975.94
2022-11-20T11:06:53.498Z,976.45
2022-11-20T11:12:25.495Z,976.8
2022-11-20T11:17:57.201Z,976.84
2022-11-20T11:23:28.850Z,976.84
2022-11-20T11:29:00.652Z,976.96
2022-11-20T11:34:32.530Z,977.77
2022-11-20T11:40:25.864Z,977.82
2022-11-20T11:45:36.120Z,977.45
2022-11-20T11:51:12.030Z,977.77
2022-11-20T11:56:43.885Z,978.16
2022-11-20T12:02:15.477Z,978.33
2022-11-20T12:07:48.732Z,978.15
2022-11-20T12:13:18.902Z,978.12
2022-11-20T12:18:50.485Z,978.1
2022-11-20T12:24:22.382Z,977.81
2022-11-20T12:29:54.105Z,977.12
2022-11-20T12:35:25.674Z,977.4
2022-11-20T12:40:57.974Z,976.86
2022-11-20T12:46:29.223Z,977.07
2022-11-20T12:52:07.428Z,976.89
2022-11-20T12:57:39.588Z,976.44
2022-11-20T13:03:10.891Z,976.15
2022-11-20T13:08:42.382Z,975.91
2022-11-20T13:14:14.203Z,976.01
2022-11-20T13:19:46.062Z,975.54
2022-11-20T13:25:17.799Z,975.57
2022-11-20T13:30:49.414Z,975.55
2022-11-20T13:36:21.019Z,976.01
2022-11-20T13:41:52.646Z,975.83
2022-11-20T13:47:24.778Z,975.77
2022-11-20T13:53:00.694Z,974.9
2022-11-20T13:58:32.435Z,974.96
2022-11-20T14:04:08.190Z,974.96
2022-11-20T14:09:35.823Z,974.83
2022-11-20T14:15:07.799Z,974.76
2022-11-20T14:20:39.259Z,974.49
2022-11-20T14:26:11.039Z,974.18
2022-11-20T14:31:42.995Z,974.35
2022-11-20T14:37:17.891Z,974.21
2022-11-20T14:42:46.109Z,974.32
2022-11-20T14:48:18.674Z,973.78
2022-11-20T14:53:56.219Z,974.2
2022-11-20T14:59:27.913Z,973.8
2022-11-20T15:04:59.869Z,973.6
2022-11-20T15:10:31.184Z,973.64
2022-11-20T15:16:02.920Z,973.97
2022-11-20T15:21:34.631Z,974.13
2022-11-20T15:27:06.599Z,973.83
2022-11-20T15:32:38.397Z,973.49
2022-11-20T15:38:09.987Z,973.42
2022-11-20T15:43:41.629Z,973.45
2022-11-20T15:49:14.172Z,973.13
2022-11-20T15:54:49.733Z,973.16
2022-11-20T16:00:24.633Z,973.04
2022-11-20T16:05:53.118Z,972.88
2022-11-20T16:11:24.794Z,972.79
2022-11-20T16:16:56.574Z,972.6
2022-11-20T16:22:28.546Z,972.39
2022-11-20T16:27:59.912Z,972.24
2022-11-20T16:33:31.635Z,971.99
2022-11-20T16:39:03.386Z,972.08
2022-11-20T16:44:35.219Z,972.33
2022-11-20T16:50:07.358Z,972.05
2022-11-20T16:55:43.407Z,971.91
2022-11-20T17:01:15.503Z,971.98
2022-11-20T17:06:46.819Z,972.06
2022-11-20T17:12:18.753Z,972.03
2022-11-20T17:17:50.494Z,971.6
2022-11-20T17:23:22.258Z,971.47
2022-11-20T17:28:53.817Z,971.5
2022-11-20T17:34:27.030Z,971.32
2022-11-20T17:39:57.224Z,971.13
2022-11-20T17:45:28.979Z,971.09
2022-11-20T17:51:00.729Z,970.9
2022-11-20T17:56:36.669Z,970.92
2022-11-20T18:02:08.739Z,970.88
2022-11-20T18:07:42.946Z,970.91
2022-11-20T18:13:11.811Z,970.71
2022-11-20T18:18:43.515Z,970.66
2022-11-20T18:24:15.944Z,970.71
2022-11-20T18:29:47.315Z,970.95
2022-11-20T18:35:18.700Z,970.89
2022-11-20T18:40:50.502Z,971.0
2022-11-20T18:46:22.267Z,971.01
2022-11-20T18:51:54.281Z,969.65
2022-11-20T18:57:32.409Z,969.68
2022-11-20T19:03:04.233Z,969.46
2022-11-20T19:08:35.652Z,969.52
2022-11-20T19:14:07.581Z,969.48
2022-11-20T19:19:41.817Z,969.34
2022-11-20T19:25:13.781Z,969.5
2022-11-20T19:30:45.355Z,968.9
2022-11-20T19:36:17.005Z,969.15
2022-11-20T19:41:48.849Z,969.38
2022-11-20T19:47:20.626Z,969.27
2022-11-20T19:52:59.521Z,969.2
2022-11-20T19:58:29.237Z,968.51
2022-11-20T20:04:00.441Z,968.3
2022-11-20T20:09:31.695Z,968.12
2022-11-20T20:15:03.522Z,968.35
2022-11-20T20:20:35.223Z,968.44
2022-11-20T20:26:06.798Z,968.16
2022-11-20T20:31:39.226Z,968.61
2022-11-20T20:37:10.305Z,968.55
2022-11-20T20:42:41.990Z,968.52
2022-11-20T20:48:13.810Z,968.5
2022-11-20T20:53:45.505Z,968.68
2022-11-20T20:59:25.170Z,968.6
2022-11-20T21:04:55.681Z,968.4
2022-11-20T21:10:27.183Z,968.33
2022-11-20T21:15:58.774Z,968.34
2022-11-20T21:21:30.867Z,968.05
2022-11-20T21:27:02.423Z,968.32
2022-11-20T21:32:34.046Z,968.17
2022-11-20T21:38:05.818Z,968.3
2022-11-20T21:43:37.521Z,968.63
2022-11-20T21:49:10.053Z,968.47
2022-11-20T21:54:41.030Z,968.72
2022-11-20T22:00:17.054Z,968.84
2022-11-20T22:05:48.925Z,968.98
2022-11-20T22:11:20.606Z,968.66
2022-11-20T22:16:52.354Z,968.78
2022-11-20T22:22:24.273Z,968.82
2022-11-20T22:27:55.833Z,968.63
2022-11-20T22:33:27.735Z,968.5
2022-11-20T22:38:59.236Z,968.63
2022-11-20T22:44:30.863Z,968.77
2022-11-20T22:50:02.641Z,968.66
2022-11-20T22:55:34.367Z,968.6
2022-11-20T23:01:10.412Z,968.62
2022-11-20T23:06:42.275Z,968.7
2022-11-20T23:12:13.722Z,968.73
2022-11-20T23:17:45.652Z,968.69
2022-11-20T23:23:17.219Z,968.98
2022-11-20T23:28:49.276Z,968.49
2022-11-20T23:34:20.767Z,968.78
2022-11-20T23:39:52.461Z,968.66
2022-11-20T23:45:24.251Z,968.54
2022-11-20T23:50:56.430Z,968.51
2022-11-20T23:56:27.854Z,968.82
